Time;durP1;ratioP1;P1;durP2;ratioP2;P2;SDS_P1;SDS_P2;PMS_P1;PMS_P2;Temp;Humidity;BMP_temperature;BMP_pressure;BME280_temperature;BME280_humidity;BME280_pressure;Samples;Min_cycle;Max_cycle;Signal;HPM_P1;HPM_P2
2023/04/12 00:02:26;;;;;;;2.53;2.00;;;;;;;11.80;68.09;100022.66;5071035;28;20017;-84
2023/04/12 00:04:54;;;;;;;2.30;2.00;;;;;;;11.71;67.98;100006.63;5074306;28;20390;-85
2023/04/12 00:07:22;;;;;;;2.80;1.88;;;;;;;11.91;67.99;100041.41;5073246;28;20028;-84
2023/04/12 00:09:47;;;;;;;2.20;1.80;;;;;;;11.50;67.81;99967.50;5072693;28;20025;-84
2023/04/12 00:12:13;;;;;;;2.65;1.90;;;;;;;11.70;67.79;100006.56;5072877;28;20406;-84
2023/04/12 00:14:38;;;;;;;2.53;2.10;;;;;;;11.72;67.83;100008.41;5074189;28;20395;-85
2023/04/12 00:17:04;;;;;;;4.53;1.90;;;;;;;11.76;67.90;100012.03;5074102;28;20047;-85
2023/04/12 00:19:30;;;;;;;3.95;2.10;;;;;;;11.87;67.75;100035.97;5074111;28;20016;-84
2023/04/12 00:21:56;;;;;;;2.08;1.88;;;;;;;11.73;67.99;100007.59;5074267;28;20482;-85
2023/04/12 00:24:21;;;;;;;3.78;2.00;;;;;;;11.77;67.96;100016.44;5072890;28;20029;-85
2023/04/12 00:26:47;;;;;;;2.97;1.88;;;;;;;11.86;67.74;100026.34;5074197;28;20025;-85
2023/04/12 00:29:12;;;;;;;2.05;1.83;;;;;;;11.78;68.15;100008.63;5072693;28;20488;-85
2023/04/12 00:31:38;;;;;;;4.40;1.80;;;;;;;11.63;67.70;99979.31;5074246;28;20102;-85
2023/04/12 00:34:04;;;;;;;2.10;1.90;;;;;;;11.81;68.01;100010.50;5073890;28;20052;-85
2023/04/12 00:36:29;;;;;;;4.93;1.88;;;;;;;11.81;67.87;100013.09;5074017;28;20024;-85
2023/04/12 00:38:55;;;;;;;2.10;1.85;;;;;;;11.61;68.06;99975.75;5073976;28;20485;-85
2023/04/12 00:41:23;;;;;;;2.80;1.98;;;;;;;11.90;67.95;100031.78;5072438;28;20498;-85
2023/04/12 00:43:48;;;;;;;2.78;2.00;;;;;;;11.92;68.09;100026.63;5073275;28;20513;-84
2023/04/12 00:46:16;;;;;;;3.92;2.10;;;;;;;11.86;67.85;100019.38;5073757;28;20028;-85
2023/04/12 00:48:42;;;;;;;3.22;1.90;;;;;;;11.87;68.20;100033.34;5073343;28;20032;-84
2023/04/12 00:51:08;;;;;;;3.03;2.05;;;;;;;11.56;68.14;99977.31;5073584;28;20025;-84
2023/04/12 00:53:34;;;;;;;2.78;1.80;;;;;;;11.72;67.93;99995.31;5073349;28;20044;-85
2023/04/12 00:56:00;;;;;;;2.70;2.03;;;;;;;11.77;68.13;100011.22;5073474;28;20038;-85
2023/04/12 00:58:26;;;;;;;3.10;2.00;;;;;;;11.67;68.23;99996.00;5073205;28;20036;-85
2023/04/12 01:00:51;;;;;;;2.20;1.80;;;;;;;11.86;68.18;100031.59;5073439;28;20036;-84
2023/04/12 01:03:26;;;;;;;6.07;2.03;;;;;;;11.91;67.97;100032.66;5073075;28;20046;-84
2023/04/12 01:06:31;;;;;;;3.08;1.95;;;;;;;11.87;68.21;100035.97;5055966;28;20039;-85
2023/04/12 01:09:22;;;;;;;1.67;1.58;;;;;;;11.76;68.26;100018.16;5044366;28;20108;-85
2023/04/12 01:12:49;;;;;;;2.78;2.13;;;;;;;11.89;68.23;100039.56;5055327;28;20481;-84
2023/04/12 01:15:15;;;;;;;3.75;1.98;;;;;;;11.79;68.11;100028.75;4987076;28;20092;-84
2023/04/12 01:17:56;;;;;;;3.90;2.20;;;;;;;11.88;68.42;100029.91;4991500;28;20046;-84
2023/04/12 01:20:36;;;;;;;2.88;2.10;;;;;;;11.78;68.10;100012.97;5020745;28;20044;-85
2023/04/12 01:23:43;;;;;;;2.45;1.80;;;;;;;11.86;68.30;100011.53;5054954;28;20074;-85
2023/04/12 01:26:14;;;;;;;3.08;2.05;;;;;;;11.85;67.98;100021.94;5048814;28;20074;-84
2023/04/12 01:28:41;;;;;;;6.90;2.13;;;;;;;11.88;67.98;100014.22;5072934;28;20082;-84
2023/04/12 01:31:11;;;;;;;2.92;2.10;;;;;;;11.89;67.95;100011.66;5034706;28;20052;-85
2023/04/12 01:33:38;;;;;;;2.28;1.95;;;;;;;11.88;67.88;100011.59;5048624;28;20047;-85
2023/04/12 01:36:10;;;;;;;4.25;2.10;;;;;;;11.66;67.94;99965.44;5041669;28;20032;-85
2023/04/12 01:38:37;;;;;;;2.75;2.10;;;;;;;11.62;68.02;99961.84;5054481;28;20039;-85
2023/04/12 01:41:04;;;;;;;3.38;2.17;;;;;;;11.80;68.48;99991.25;5054494;28;20107;-85
2023/04/12 01:43:29;;;;;;;4.68;2.33;;;;;;;11.89;68.05;99998.59;5055254;28;20028;-85
2023/04/12 01:45:55;;;;;;;4.00;2.33;;;;;;;11.90;68.16;100007.34;5092823;28;20746;-85
2023/04/12 01:48:20;;;;;;;2.80;2.15;;;;;;;11.90;68.43;100004.72;5074842;28;20032;-85
2023/04/12 01:51:05;;;;;;;2.53;2.33;;;;;;;11.82;68.02;100000.06;5074537;28;20020;-86
2023/04/12 01:53:39;;;;;;;2.83;2.17;;;;;;;11.85;68.02;100004.50;5074398;28;20028;-85
2023/04/12 01:56:09;;;;;;;2.67;2.20;;;;;;;11.86;68.10;99997.56;5074632;28;20059;-85
2023/04/12 01:58:35;;;;;;;2.75;2.28;;;;;;;11.80;68.31;99988.66;5074420;28;20447;-85
2023/04/12 02:01:02;;;;;;;3.78;2.17;;;;;;;11.85;68.22;99995.78;5073778;28;20051;-85
2023/04/12 02:03:29;;;;;;;4.60;2.30;;;;;;;11.81;68.32;99993.06;5090036;28;20119;-85
2023/04/12 02:05:56;;;;;;;3.75;2.20;;;;;;;11.66;68.32;99976.78;5090999;28;20039;-84
2023/04/12 02:08:22;;;;;;;2.17;1.85;;;;;;;11.84;67.95;100010.59;5057358;28;20031;-85
2023/04/12 02:10:48;;;;;;;2.88;2.15;;;;;;;11.80;68.01;100001.72;5092031;28;20024;-84
2023/04/12 02:13:13;;;;;;;2.65;2.00;;;;;;;11.87;68.30;100012.41;5092292;28;20847;-86
2023/04/12 02:15:39;;;;;;;2.58;2.08;;;;;;;11.82;68.31;100007.91;5091537;28;20027;-85
2023/04/12 02:18:05;;;;;;;2.72;2.20;;;;;;;11.86;68.29;100011.53;5091992;28;20120;-84
2023/04/12 02:20:31;;;;;;;3.00;2.10;;;;;;;11.65;68.61;99980.25;5091698;28;20020;-85
2023/04/12 02:22:56;;;;;;;3.25;2.30;;;;;;;11.73;68.44;99991.88;5073421;28;20508;-85
2023/04/12 02:25:22;;;;;;;3.05;2.28;;;;;;;11.65;68.04;99972.41;5072680;28;20557;-85
2023/04/12 02:27:48;;;;;;;2.67;2.17;;;;;;;11.72;68.31;99990.09;5092116;28;20042;-85
2023/04/12 02:30:14;;;;;;;3.03;2.25;;;;;;;11.74;68.56;100000.63;5091689;28;20464;-85
2023/04/12 02:32:45;;;;;;;;;;;;;;;11.78;68.38;100006.00;5091033;28;20036;-85
2023/04/12 02:35:13;;;;;;;3.88;2.45;;;;;;;11.69;68.40;99990.00;5073652;28;20301;-85
2023/04/12 02:37:39;;;;;;;2.80;2.10;;;;;;;11.67;68.09;99988.16;5090876;28;20081;-85
2023/04/12 02:40:05;;;;;;;;;;;;;;;11.85;68.26;100014.09;5074840;28;20031;-84
2023/04/12 02:42:32;;;;;;;4.32;2.17;;;;;;;11.57;68.46;99976.47;5073962;28;19908;-86
2023/04/12 02:44:57;;;;;;;2.75;1.90;;;;;;;11.65;68.53;99987.22;5056541;28;20044;-85
2023/04/12 02:47:27;;;;;;;2.20;1.90;;;;;;;11.67;68.24;99989.03;5091591;28;20050;-86
2023/04/12 02:49:54;;;;;;;2.47;2.13;;;;;;;11.63;68.57;99999.34;5091606;28;20085;-86
2023/04/12 02:52:19;;;;;;;3.28;2.28;;;;;;;11.74;68.42;100013.69;5091314;28;20545;-86
2023/04/12 02:54:45;;;;;;;2.33;2.00;;;;;;;11.70;68.49;100004.84;5091676;28;20055;-86
2023/04/12 02:57:11;;;;;;;2.55;2.30;;;;;;;11.72;68.57;99991.81;5091095;28;20383;-86
2023/04/12 02:59:38;;;;;;;2.67;2.30;;;;;;;11.76;68.19;99992.00;5073310;28;20436;-86
2023/04/12 03:02:03;;;;;;;3.30;2.15;;;;;;;11.70;68.49;99988.25;5073097;28;20027;-85
2023/04/12 03:04:29;;;;;;;2.13;1.92;;;;;;;11.70;68.10;99989.16;5091444;28;20085;-85
2023/04/12 03:06:55;;;;;;;3.10;2.33;;;;;;;11.58;68.52;99968.69;5091228;28;20020;-85
2023/04/12 03:09:21;;;;;;;;;;;;;;;11.80;68.35;99993.88;5091267;28;20036;-85
2023/04/12 03:11:47;;;;;;;2.97;2.30;;;;;;;11.45;68.50;99952.47;5072968;28;19919;-84
2023/04/12 03:14:12;;;;;;;3.05;2.20;;;;;;;11.45;68.03;99945.53;5091241;28;20523;-87
2023/04/12 03:16:38;;;;;;;3.30;2.30;;;;;;;11.74;68.21;100001.50;5091018;28;20110;-85
2023/04/12 03:19:05;;;;;;;2.78;1.90;;;;;;;11.51;68.16;99955.31;5091216;28;20091;-84
2023/04/12 03:21:32;;;;;;;4.55;2.13;;;;;;;11.54;68.59;99982.47;5073024;28;20031;-86
2023/04/12 03:23:58;;;;;;;2.22;1.83;;;;;;;11.73;68.83;100004.97;5090995;28;20054;-86
2023/04/12 03:26:25;;;;;;;4.22;2.13;;;;;;;11.53;68.79;99965.00;5056188;28;20055;-86
2023/04/12 03:28:57;;;;;;;2.88;2.28;;;;;;;11.60;68.68;99980.09;5090817;28;20028;-85
2023/04/12 03:31:23;;;;;;;2.95;2.00;;;;;;;11.80;68.19;100006.06;5073078;28;20027;-86
2023/04/12 03:33:49;;;;;;;2.30;2.10;;;;;;;11.70;68.70;99994.38;5090613;28;20027;-86
2023/04/12 03:36:14;;;;;;;2.40;1.92;;;;;;;11.72;68.62;100013.63;5072637;28;20516;-85
2023/04/12 03:38:40;;;;;;;3.42;2.22;;;;;;;11.57;68.54;100003.50;5090786;28;20603;-86
2023/04/12 03:41:06;;;;;;;3.17;1.92;;;;;;;11.65;68.74;100014.25;5090741;28;20023;-85
2023/04/12 03:43:34;;;;;;;2.65;2.20;;;;;;;11.53;68.64;99977.19;5090608;28;20114;-84
2023/04/12 03:46:02;;;;;;;3.40;2.05;;;;;;;11.71;68.71;100010.97;5090508;28;20457;-85
2023/04/12 03:48:28;;;;;;;4.97;2.20;;;;;;;11.65;68.55;100014.25;5072619;28;20053;-85
2023/04/12 03:50:53;;;;;;;2.35;2.00;;;;;;;11.60;68.91;100005.34;5090892;28;20020;-84
2023/04/12 03:53:20;;;;;;;2.85;2.30;;;;;;;11.71;68.88;100024.94;5090914;28;20047;-84
2023/04/12 03:55:45;;;;;;;2.10;1.90;;;;;;;11.77;68.75;100026.91;5072646;28;20027;-84
2023/04/12 03:58:15;;;;;;;2.60;2.05;;;;;;;11.75;68.22;100016.38;5072963;28;20028;-84
2023/04/12 04:00:41;;;;;;;2.88;2.17;;;;;;;11.78;68.47;100032.16;5073268;28;20158;-85
2023/04/12 04:03:07;;;;;;;4.50;2.05;;;;;;;11.64;68.36;100008.94;5077166;28;20064;-85
2023/04/12 04:05:33;;;;;;;2.58;2.20;;;;;;;11.65;68.58;100009.03;5090711;28;20039;-86
2023/04/12 04:08:01;;;;;;;3.05;2.00;;;;;;;11.76;68.49;100032.94;5090171;28;20035;-85
2023/04/12 04:10:27;;;;;;;3.80;2.42;;;;;;;11.73;68.70;100038.97;5090565;28;20032;-83
2023/04/12 04:12:53;;;;;;;4.05;2.30;;;;;;;11.72;68.67;100041.50;5071704;28;20521;-84
2023/04/12 04:15:19;;;;;;;2.47;2.20;;;;;;;11.47;68.47;100014.47;5090586;28;20119;-84
2023/04/12 04:17:47;;;;;;;2.80;2.28;;;;;;;11.60;68.59;100026.28;5077192;28;20036;-84
2023/04/12 04:20:13;;;;;;;2.40;2.00;;;;;;;11.67;68.39;100040.47;5090400;28;20027;-84
2023/04/12 04:22:39;;;;;;;2.58;2.08;;;;;;;11.54;68.89;100029.53;5090309;28;20028;-84
2023/04/12 04:25:05;;;;;;;2.53;2.30;;;;;;;11.63;68.54;100030.72;5072598;28;20028;-84
2023/04/12 04:27:33;;;;;;;3.05;2.47;;;;;;;11.33;68.71;99981.66;5090644;28;20028;-84
2023/04/12 04:30:01;;;;;;;2.78;2.25;;;;;;;11.58;68.66;100031.44;5090312;28;20059;-83
2023/04/12 04:32:27;;;;;;;2.70;2.30;;;;;;;11.66;68.67;100052.63;5090291;28;20115;-83
2023/04/12 04:34:58;;;;;;;;;;;;;;;11.75;68.65;100063.47;5090880;28;20085;-84
2023/04/12 04:37:25;;;;;;;4.63;2.30;;;;;;;11.71;68.55;100066.78;5068481;28;19912;-84
2023/04/12 04:39:51;;;;;;;4.60;2.38;;;;;;;11.71;68.67;100061.56;5091428;28;20030;-84
2023/04/12 04:42:16;;;;;;;2.55;2.25;;;;;;;11.72;68.54;100067.66;5079939;28;20040;-83
2023/04/12 04:44:42;;;;;;;3.08;2.30;;;;;;;11.54;68.79;100039.09;5072248;28;20119;-84
2023/04/12 04:47:08;;;;;;;3.53;2.50;;;;;;;11.69;68.83;100068.44;5071162;28;20493;-83
2023/04/12 04:49:35;;;;;;;3.03;2.35;;;;;;;11.52;68.73;100031.19;5023833;28;20032;-83
2023/04/12 04:52:01;;;;;;;3.25;2.30;;;;;;;11.69;68.82;100067.56;5065773;28;20032;-82
2023/04/12 04:54:27;;;;;;;3.38;2.20;;;;;;;11.55;68.72;100031.31;5066357;28;20028;-83
2023/04/12 04:56:53;;;;;;;2.47;2.15;;;;;;;11.70;68.96;100064.09;5070662;28;20465;-83
2023/04/12 04:59:18;;;;;;;4.35;2.28;;;;;;;11.67;68.76;100058.78;5051919;28;20033;-83
2023/04/12 05:01:44;;;;;;;2.90;2.20;;;;;;;11.62;68.88;100048.16;5073117;28;20039;-83
2023/04/12 05:04:10;;;;;;;2.22;2.03;;;;;;;11.63;68.91;100062.97;5045362;28;20028;-83
2023/04/12 05:06:36;;;;;;;2.35;2.08;;;;;;;11.69;68.57;100059.72;5075334;28;20037;-82
2023/04/12 05:09:01;;;;;;;3.15;2.30;;;;;;;11.65;68.35;100047.38;5072438;28;20036;-82
2023/04/12 05:11:27;;;;;;;2.88;2.28;;;;;;;11.71;68.65;100063.28;5049725;28;20033;-82
2023/04/12 05:13:53;;;;;;;2.25;2.05;;;;;;;11.70;68.62;100061.50;5064453;28;20493;-83
2023/04/12 05:16:18;;;;;;;4.75;2.50;;;;;;;11.71;68.53;100066.78;5062825;28;20033;-84
2023/04/12 05:18:44;;;;;;;2.55;2.20;;;;;;;11.55;69.10;100033.91;5065307;28;20029;-83
2023/04/12 05:21:10;;;;;;;;;;;;;;;11.69;68.99;100063.22;5069509;28;20094;-83
2023/04/12 05:23:36;;;;;;;3.53;2.50;;;;;;;11.46;68.79;100038.81;5065721;28;19916;-83
2023/04/12 05:26:03;;;;;;;2.88;2.17;;;;;;;11.48;68.95;100046.72;5062161;28;20472;-83
2023/04/12 05:28:28;;;;;;;;;;;;;;;11.69;68.81;100063.22;5067831;28;20032;-82
2023/04/12 05:30:54;;;;;;;4.63;2.50;;;;;;;11.58;68.98;100041.91;5069391;28;19917;-83
2023/04/12 05:33:19;;;;;;;3.15;2.42;;;;;;;11.67;68.81;100059.66;5067669;28;20405;-85
2023/04/12 05:35:45;;;;;;;2.40;2.20;;;;;;;11.57;68.66;100034.88;5071128;28;20040;-84
2023/04/12 05:38:11;;;;;;;3.63;2.70;;;;;;;11.57;69.11;100044.44;5062643;28;20028;-83
2023/04/12 05:40:37;;;;;;;3.20;2.40;;;;;;;11.51;69.47;100041.59;5038297;28;20033;-86
2023/04/12 05:43:03;;;;;;;3.05;2.50;;;;;;;11.44;69.21;100032.63;5066910;28;20123;-88
2023/04/12 05:45:28;;;;;;;3.30;2.42;;;;;;;11.50;69.28;100025.03;5067967;28;20131;-86
2023/04/12 05:47:55;;;;;;;3.17;2.60;;;;;;;11.54;68.97;100039.09;5089108;28;20178;-88
2023/04/12 05:50:21;;;;;;;3.13;2.50;;;;;;;11.68;68.78;100055.31;5086091;28;20119;-86
2023/04/12 05:52:52;;;;;;;3.75;2.58;;;;;;;11.30;68.95;100002.44;5090307;28;20085;-87
2023/04/12 05:55:18;;;;;;;3.47;2.53;;;;;;;11.18;68.79;99981.97;5089857;28;20032;-88
2023/04/12 05:57:45;;;;;;;2.85;2.38;;;;;;;11.20;69.12;99990.75;5091246;28;20020;-87
2023/04/12 06:00:17;;;;;;;3.95;2.42;;;;;;;11.33;68.92;100013.03;5072617;28;20097;-86
2023/04/12 06:02:44;;;;;;;4.43;2.63;;;;;;;11.59;69.14;100054.13;5081156;28;20112;-86
2023/04/12 06:05:11;;;;;;;3.22;2.50;;;;;;;11.59;69.20;100061.97;5087936;28;20085;-85
2023/04/12 06:07:49;;;;;;;3.67;2.10;;;;;;;11.64;68.89;100056.03;5069342;28;20027;-84
2023/04/12 06:10:15;;;;;;;3.30;2.58;;;;;;;11.65;69.00;100061.31;5091310;28;20032;-86
2023/04/12 06:12:41;;;;;;;5.10;2.55;;;;;;;11.57;69.24;100037.47;5091535;28;20023;-85
2023/04/12 06:15:07;;;;;;;3.42;2.78;;;;;;;11.61;69.11;100049.84;5091497;28;20024;-86
2023/04/12 06:17:34;;;;;;;3.85;2.80;;;;;;;11.51;69.08;100045.09;5070912;28;20028;-86
2023/04/12 06:19:59;;;;;;;;;;;;;;;11.59;69.13;100055.84;5090202;28;20020;-85
2023/04/12 06:22:25;;;;;;;6.97;2.90;;;;;;;11.55;69.04;100047.00;5073122;28;20343;-86
2023/04/12 06:24:53;;;;;;;4.00;2.80;;;;;;;11.51;69.45;100044.22;5090995;28;20055;-86
2023/04/12 06:27:21;;;;;;;3.47;2.70;;;;;;;11.18;69.04;99981.97;5091526;28;20032;-85
2023/04/12 06:29:47;;;;;;;3.75;2.92;;;;;;;11.24;69.24;99997.91;5090514;28;20024;-85
2023/04/12 06:32:12;;;;;;;4.13;2.85;;;;;;;11.57;69.33;100058.41;5090443;28;20032;-85
2023/04/12 06:34:38;;;;;;;3.72;2.72;;;;;;;11.54;69.33;100055.69;5089645;28;20040;-85
2023/04/12 06:37:03;;;;;;;4.22;2.72;;;;;;;11.52;69.18;100048.63;5090550;28;20024;-85
2023/04/12 06:39:29;;;;;;;3.85;2.80;;;;;;;11.57;69.49;100047.94;5089672;28;20039;-86
2023/04/12 06:41:56;;;;;;;4.38;2.78;;;;;;;11.55;69.31;100044.38;5090721;28;20031;-85
2023/04/12 06:44:22;;;;;;;4.03;2.67;;;;;;;11.56;69.24;100046.19;5068353;28;20082;-86
2023/04/12 06:46:48;;;;;;;4.32;2.70;;;;;;;11.54;69.28;100053.06;5070412;28;20033;-85
2023/04/12 06:49:13;;;;;;;3.75;2.90;;;;;;;11.33;69.66;100016.53;5070308;28;20107;-85
2023/04/12 06:51:45;;;;;;;3.63;2.78;;;;;;;11.48;69.48;100049.34;5070605;28;20106;-85
2023/04/12 06:54:14;;;;;;;3.95;2.50;;;;;;;11.48;69.59;100046.72;5082041;28;20020;-85
2023/04/12 06:56:40;;;;;;;4.15;2.72;;;;;;;11.48;69.57;100051.94;5068232;28;20064;-85
2023/04/12 06:59:05;;;;;;;3.10;2.50;;;;;;;11.51;69.55;100047.69;5069388;28;20453;-83
2023/04/12 07:01:34;;;;;;;3.58;2.60;;;;;;;11.43;69.38;100020.41;5070374;28;20036;-85
2023/04/12 07:03:59;;;;;;;3.47;2.42;;;;;;;11.56;69.52;100045.28;5068003;28;20498;-84
2023/04/12 07:06:27;;;;;;;3.20;2.58;;;;;;;11.45;69.80;100034.44;5086258;28;20116;-85
2023/04/12 07:08:52;;;;;;;2.85;2.40;;;;;;;11.50;69.98;100047.66;5068929;28;20040;-85
2023/04/12 07:11:21;;;;;;;2.90;2.35;;;;;;;11.55;69.38;100043.50;5068403;28;20028;-85
2023/04/12 07:13:50;;;;;;;3.72;2.60;;;;;;;11.52;69.97;100048.63;5067333;28;20027;-86
2023/04/12 07:16:16;;;;;;;3.33;2.30;;;;;;;11.47;70.00;100045.84;5080038;28;20083;-85
2023/04/12 07:18:43;;;;;;;4.13;2.70;;;;;;;11.51;69.86;100057.28;5068545;28;20028;-85
2023/04/12 07:21:12;;;;;;;3.28;2.40;;;;;;;11.48;69.27;100049.34;5068858;28;20028;-85
2023/04/12 07:23:39;;;;;;;3.35;2.60;;;;;;;11.54;69.43;100065.25;5070031;28;20077;-85
2023/04/12 07:26:05;;;;;;;3.50;2.45;;;;;;;11.61;69.42;100078.59;5068097;28;20505;-86
2023/04/12 07:28:31;;;;;;;4.38;2.75;;;;;;;11.52;69.65;100061.69;5063840;28;20032;-85
2023/04/12 07:30:56;;;;;;;3.80;2.80;;;;;;;11.47;69.74;100071.06;5069632;28;20029;-85
2023/04/12 07:33:24;;;;;;;5.30;2.88;;;;;;;11.46;69.83;100070.19;5070422;28;20107;-86
2023/04/12 07:35:50;;;;;;;4.00;3.10;;;;;;;11.32;69.75;100039.97;5068271;28;20486;-85
2023/04/12 07:38:16;;;;;;;4.72;2.70;;;;;;;11.41;69.68;100056.94;5068959;28;20103;-86
2023/04/12 07:40:41;;;;;;;4.70;3.20;;;;;;;11.37;69.91;100048.91;5069652;28;20028;-86
2023/04/12 07:43:07;;;;;;;4.03;2.67;;;;;;;11.37;69.97;100043.69;5069905;28;20074;-87
2023/04/12 07:45:36;;;;;;;2.50;2.30;;;;;;;11.24;69.70;100028.34;5067200;28;20053;-85
2023/04/12 07:48:02;;;;;;;3.63;2.55;;;;;;;11.44;69.63;100060.50;5084750;28;20083;-86
2023/04/12 07:50:28;;;;;;;5.95;3.08;;;;;;;11.43;69.57;100051.78;5069488;28;20033;-86
2023/04/12 07:53:01;;;;;;;3.97;2.75;;;;;;;11.29;69.68;100027.69;5069244;28;20028;-85
2023/04/12 07:55:27;;;;;;;3.88;2.78;;;;;;;11.34;69.89;100035.72;5067819;28;20050;-86
2023/04/12 07:57:52;;;;;;;3.22;2.70;;;;;;;11.42;70.07;100049.97;5068064;28;20040;-86
2023/04/12 08:00:19;;;;;;;4.78;2.70;;;;;;;11.61;69.55;100072.50;5084095;28;20016;-86
2023/04/12 08:02:45;;;;;;;4.15;2.90;;;;;;;11.60;69.67;100073.34;5069416;28;20494;-86
2023/04/12 08:05:10;;;;;;;3.10;2.80;;;;;;;11.56;69.77;100074.06;5067827;28;20086;-87
2023/04/12 08:07:36;;;;;;;5.55;2.58;;;;;;;11.60;69.47;100073.34;5069554;28;20089;-86
2023/04/12 08:10:02;;;;;;;3.58;2.35;;;;;;;11.48;69.86;100051.94;5069000;28;20387;-86
2023/04/12 08:12:27;;;;;;;3.78;2.83;;;;;;;11.54;70.05;100067.88;5070113;28;20034;-87
2023/04/12 08:14:53;;;;;;;2.72;2.53;;;;;;;11.28;70.05;100027.63;5068949;28;20031;-87
2023/04/12 08:17:18;;;;;;;3.35;2.53;;;;;;;11.46;69.94;100064.94;5068141;28;20056;-87
2023/04/12 08:19:44;;;;;;;3.03;2.47;;;;;;;11.35;69.97;100040.13;5068816;28;20067;-88
2023/04/12 08:22:09;;;;;;;4.45;2.80;;;;;;;11.35;70.18;100050.59;5069427;28;20036;-86
2023/04/12 08:24:35;;;;;;;3.47;2.40;;;;;;;11.49;70.31;100077.25;5069881;28;20024;-85
2023/04/12 08:27:02;;;;;;;3.33;2.60;;;;;;;11.53;69.98;100080.03;5073467;28;20031;-85
2023/04/12 08:29:27;;;;;;;2.95;2.50;;;;;;;11.49;70.23;100075.50;5070220;28;20024;-85
2023/04/12 08:31:55;;;;;;;3.03;2.30;;;;;;;11.46;70.11;100053.59;5070773;28;20031;-84
2023/04/12 08:34:23;;;;;;;4.55;2.53;;;;;;;11.53;69.76;100076.53;5070579;28;20063;-85
2023/04/12 08:36:49;;;;;;;3.10;2.60;;;;;;;11.56;69.78;100058.38;5054993;28;20043;-85
2023/04/12 08:39:16;;;;;;;3.78;2.60;;;;;;;11.53;69.84;100056.50;5073220;28;20024;-84
2023/04/12 08:41:45;;;;;;;3.47;2.45;;;;;;;11.61;69.65;100080.34;5065927;28;20039;-84
2023/04/12 08:44:10;;;;;;;3.33;2.30;;;;;;;11.33;69.89;100029.59;5074600;28;20040;-88
2023/04/12 08:46:42;;;;;;;3.58;2.65;;;;;;;11.48;69.75;100054.56;5075405;28;20044;-86
2023/04/12 08:49:11;;;;;;;4.15;2.63;;;;;;;11.39;69.60;100028.97;5092147;28;20054;-85
2023/04/12 08:51:37;;;;;;;5.95;2.80;;;;;;;11.40;69.90;100030.72;5093796;28;20156;-84
2023/04/12 08:54:06;;;;;;;2.97;2.58;;;;;;;11.63;69.64;100076.06;5090829;28;20543;-85
2023/04/12 08:56:35;;;;;;;3.95;2.40;;;;;;;11.65;69.74;100068.28;5092320;28;20525;-85
2023/04/12 08:59:01;;;;;;;2.95;2.47;;;;;;;11.57;69.67;100057.53;5093677;28;20157;-85
2023/04/12 09:01:28;;;;;;;3.15;2.33;;;;;;;11.49;70.04;100048.47;5069416;28;20032;-85
2023/04/12 09:03:54;;;;;;;2.92;2.40;;;;;;;11.61;70.11;100072.50;5084908;28;20139;-87
2023/04/12 09:06:19;;;;;;;2.92;2.55;;;;;;;11.56;70.06;100055.75;5075193;28;20039;-85
2023/04/12 09:08:59;;;;;;;3.10;2.70;;;;;;;11.53;69.92;100039.94;5091340;28;20028;-87
2023/04/12 09:11:28;;;;;;;4.13;2.72;;;;;;;11.72;69.72;100078.13;5084806;28;20031;-86
2023/04/12 09:13:55;;;;;;;3.65;2.70;;;;;;;11.45;69.48;100023.97;5092046;28;20071;-85
2023/04/12 09:16:40;;;;;;;4.40;2.78;;;;;;;11.61;69.33;100064.66;5056055;28;20027;-88
2023/04/12 09:19:06;;;;;;;4.43;2.53;;;;;;;11.41;69.93;100027.28;5073054;28;20436;-86
2023/04/12 09:21:36;;;;;;;3.35;2.47;;;;;;;11.43;69.77;100028.25;5064767;28;20085;-86
2023/04/12 09:24:08;;;;;;;4.32;2.90;;;;;;;11.49;69.69;100041.53;5091518;28;20020;-86
2023/04/12 09:26:35;;;;;;;3.10;2.45;;;;;;;11.55;69.57;100046.09;5091827;28;20023;-85
2023/04/12 09:29:01;;;;;;;3.33;2.50;;;;;;;11.53;69.75;100046.03;5073640;28;20481;-86
2023/04/12 09:31:26;;;;;;;3.70;2.92;;;;;;;11.52;69.58;100053.84;5091578;28;20154;-86
2023/04/12 09:33:52;;;;;;;4.25;2.85;;;;;;;11.70;69.79;100083.28;5092024;28;20040;-86
2023/04/12 09:36:17;;;;;;;2.90;2.60;;;;;;;11.73;69.75;100083.44;5091911;28;20490;-86
2023/04/12 09:39:03;;;;;;;2.50;2.30;;;;;;;11.76;69.73;100085.25;5092698;28;20024;-86
2023/04/12 09:41:30;;;;;;;2.83;2.45;;;;;;;11.77;69.48;100092.28;5073492;28;20027;-84
2023/04/12 09:43:57;;;;;;;3.15;2.58;;;;;;;11.78;69.61;100084.47;5091010;28;20048;-87
2023/04/12 09:46:23;;;;;;;3.33;2.45;;;;;;;11.72;69.71;100080.75;5074020;28;20023;-87
2023/04/12 09:48:54;;;;;;;3.85;2.42;;;;;;;11.75;69.56;100091.34;5093573;28;20032;-84
2023/04/12 09:51:25;;;;;;;3.70;2.35;;;;;;;11.61;69.79;100080.34;5088591;28;20537;-88
2023/04/12 09:53:51;;;;;;;3.08;2.53;;;;;;;11.77;69.62;100087.06;5092738;28;20024;-85
2023/04/12 09:56:17;;;;;;;;;;;;;;;11.71;69.82;100092.94;5077538;28;20026;-85
2023/04/12 09:58:44;;;;;;;3.40;2.53;;;;;;;11.67;70.23;100096.28;5073740;28;20000;-84
2023/04/12 10:01:10;;;;;;;3.63;2.53;;;;;;;11.50;69.91;100076.44;5072662;28;20055;-85
2023/04/12 10:03:35;;;;;;;;;;;;;;;11.70;69.67;100095.50;5091568;28;20035;-86
2023/04/12 10:06:03;;;;;;;4.75;2.58;;;;;;;11.63;69.91;100083.03;5074612;28;19908;-86
2023/04/12 10:08:30;;;;;;;3.55;2.53;;;;;;;11.65;69.70;100087.47;5073989;28;20023;-86
2023/04/12 10:10:56;;;;;;;3.33;2.67;;;;;;;11.46;69.95;100057.09;5074803;28;20064;-86
2023/04/12 10:13:24;;;;;;;3.55;2.53;;;;;;;11.75;69.76;100091.34;5091640;28;20063;-86
2023/04/12 10:15:51;;;;;;;2.97;2.22;;;;;;;11.53;69.54;100046.03;5091982;28;20082;-85
2023/04/12 10:18:17;;;;;;;2.58;2.33;;;;;;;11.75;69.30;100087.00;5091856;28;20098;-86
2023/04/12 10:20:45;;;;;;;2.97;2.40;;;;;;;11.59;69.44;100064.59;5076185;28;20023;-86
2023/04/12 10:23:11;;;;;;;2.95;2.42;;;;;;;11.62;69.81;100069.06;5072599;28;20030;-86
2023/04/12 10:25:41;;;;;;;3.42;2.38;;;;;;;11.51;69.63;100057.28;5074888;28;20389;-85
2023/04/12 10:28:23;;;;;;;2.88;2.35;;;;;;;11.77;69.35;100095.78;5090503;28;20038;-86
2023/04/12 10:30:50;;;;;;;3.53;2.53;;;;;;;11.78;69.30;100087.09;5091667;28;20028;-86
2023/04/12 10:33:25;;;;;;;5.25;2.67;;;;;;;11.87;69.59;100103.97;5072855;28;20089;-86
2023/04/12 10:35:56;;;;;;;2.80;2.40;;;;;;;11.79;69.57;100095.88;5091975;28;20496;-87
2023/04/12 10:38:25;;;;;;;3.85;2.47;;;;;;;11.89;69.57;100097.13;5091439;28;20107;-87
2023/04/12 10:41:16;;;;;;;3.53;2.47;;;;;;;11.91;69.19;100101.56;5073171;28;20081;-86
2023/04/12 10:43:43;;;;;;;6.05;2.60;;;;;;;11.71;69.20;100076.38;5090130;28;20035;-86
2023/04/12 10:46:37;;;;;;;5.18;2.90;;;;;;;11.78;69.31;100083.59;5087727;28;20111;-86
2023/04/12 10:49:09;;;;;;;2.70;2.42;;;;;;;11.85;69.62;100095.19;5087736;28;20036;-85
2023/04/12 10:51:35;;;;;;;3.70;2.63;;;;;;;11.66;69.47;100063.09;5086956;28;20068;-85
2023/04/12 10:54:07;;;;;;;4.93;2.90;;;;;;;11.91;69.54;100098.06;5072492;28;20501;-86
2023/04/12 10:56:43;;;;;;;4.30;2.67;;;;;;;11.82;69.59;100104.69;5087816;28;20036;-85
2023/04/12 10:59:09;;;;;;;3.45;2.80;;;;;;;11.86;69.66;100112.69;5088837;28;20019;-86
2023/04/12 11:01:36;;;;;;;4.03;2.90;;;;;;;11.68;69.66;100071.00;5089172;28;20111;-85
2023/04/12 11:04:17;;;;;;;3.65;2.83;;;;;;;11.93;69.68;100112.97;5069624;28;20031;-85
2023/04/12 11:06:51;;;;;;;5.43;3.03;;;;;;;11.93;69.71;100109.47;5087063;28;20055;-85
2023/04/12 11:09:49;;;;;;;3.70;2.78;;;;;;;11.87;69.79;100111.81;5088976;28;20024;-86
2023/04/12 11:12:15;;;;;;;3.85;2.70;;;;;;;11.72;69.92;100076.41;5049929;28;20035;-86
2023/04/12 11:14:46;;;;;;;4.20;3.15;;;;;;;11.75;69.76;100083.50;5088860;28;20034;-84
2023/04/12 11:17:11;;;;;;;3.78;2.97;;;;;;;11.86;69.96;100108.34;5088923;28;20086;-85
2023/04/12 11:19:42;;;;;;;4.40;2.97;;;;;;;11.86;69.73;100118.78;5088295;28;20036;-84
2023/04/12 11:22:12;;;;;;;3.25;2.95;;;;;;;11.77;69.96;100101.03;5088093;28;20039;-84
2023/04/12 11:24:38;;;;;;;4.05;2.95;;;;;;;11.85;69.96;100114.38;5088512;28;20031;-85
2023/04/12 11:27:04;;;;;;;4.80;3.30;;;;;;;11.73;70.08;100096.50;5055669;28;20023;-85
2023/04/12 11:29:33;;;;;;;4.60;3.40;;;;;;;11.80;70.31;100102.84;5072161;28;20128;-86
2023/04/12 11:32:02;;;;;;;4.07;3.17;;;;;;;11.53;70.25;100053.00;5066773;28;20123;-87
2023/04/12 11:34:32;;;;;;;3.72;3.13;;;;;;;11.55;70.14;100059.19;5089293;28;20028;-86